Time;durP1;ratioP1;P1;durP2;ratioP2;P2;SDS_P1;SDS_P2;PMS_P1;PMS_P2;Temp;Humidity;BMP_temperature;BMP_pressure;BME280_temperature;BME280_humidity;BME280_pressure;Samples;Min_cycle;Max_cycle;Signal;HPM_P1;HPM_P2
2023/10/07 00:02:56;;;;;;;430.00;191.90;;;;;;;;;;5031088;28;20221;-80
2023/10/07 00:05:27;;;;;;;473.67;207.27;;;;;;;;;;5015777;28;20562;-80
2023/10/07 00:08:00;;;;;;;459.73;208.73;;;;;;;;;;5025962;28;20280;-80
2023/10/07 00:10:26;;;;;;;461.40;202.70;;;;;;;;;;5029128;28;20310;-80
2023/10/07 00:12:52;;;;;;;487.43;218.27;;;;;;;;;;5019158;28;20215;-79
2023/10/07 00:15:21;;;;;;;468.37;205.40;;;;;;;;;;5016004;28;20897;-80
2023/10/07 00:17:47;;;;;;;488.43;219.50;;;;;;;;;;5039384;28;21145;-80
2023/10/07 00:20:14;;;;;;;502.83;226.40;;;;;;;;;;5019123;28;20219;-80
2023/10/07 00:22:49;;;;;;;465.77;216.70;;;;;;;;;;5032376;28;20279;-80
2023/10/07 00:25:19;;;;;;;445.73;197.87;;;;;;;;;;5038308;28;20210;-80
2023/10/07 00:27:45;;;;;;;490.40;223.70;;;;;;;;;;5021988;28;20696;-79
2023/10/07 00:30:21;;;;;;;481.47;218.03;;;;;;;;;;5006949;28;20224;-80
2023/10/07 00:32:50;;;;;;;473.50;212.97;;;;;;;;;;5034398;28;20462;-79
2023/10/07 00:35:19;;;;;;;469.23;206.93;;;;;;;;;;5021493;28;20232;-80
2023/10/07 00:37:45;;;;;;;463.57;210.63;;;;;;;;;;5031161;28;20216;-79
2023/10/07 00:40:14;;;;;;;462.97;212.03;;;;;;;;;;5019630;28;20221;-79
2023/10/07 00:42:45;;;;;;;540.47;253.77;;;;;;;;;;5029048;28;20258;-80
2023/10/07 00:45:16;;;;;;;479.47;215.80;;;;;;;;;;5010197;28;20224;-78
2023/10/07 00:47:42;;;;;;;501.53;225.87;;;;;;;;;;5018519;28;20315;-80
2023/10/07 00:50:12;;;;;;;469.60;210.07;;;;;;;;;;5009364;28;20223;-79
2023/10/07 00:55:29;;;;;;;499.30;223.83;;;;;;;;;;5021071;28;20238;-79
2023/10/07 01:03:16;;;;;;;498.97;225.30;;;;;;;;;;5021561;28;20250;-78
2023/10/07 01:06:25;;;;;;;490.00;219.37;;;;;;;;;;5018137;28;20310;-79
2023/10/07 01:08:37;;;;;;;460.07;200.73;;;;;;;;;;5030105;28;20219;-79
2023/10/07 01:11:39;;;;;;;474.23;212.90;;;;;;;;;;5007284;28;20208;-80
2023/10/07 01:14:00;;;;;;;481.37;211.03;;;;;;;;;;5024735;28;20212;-80
2023/10/07 01:16:40;;;;;;;472.43;207.50;;;;;;;;;;5021175;28;20224;-80
2023/10/07 01:21:55;;;;;;;446.97;197.33;;;;;;;;;;5027004;28;20181;-80
2023/10/07 01:24:42;;;;;;;436.20;192.37;;;;;;;;;;5020341;28;20213;-80
2023/10/07 01:27:21;;;;;;;462.73;201.27;;;;;;;;;;5015663;28;20325;-80
2023/10/07 01:29:49;;;;;;;488.93;222.50;;;;;;;;;;5009014;28;20231;-79
2023/10/07 01:32:19;;;;;;;462.27;205.20;;;;;;;;;;5036413;28;20215;-80
2023/10/07 01:34:50;;;;;;;489.87;219.87;;;;;;;;;;5013637;28;20769;-80
2023/10/07 01:37:21;;;;;;;434.20;189.40;;;;;;;;;;5032393;28;20585;-80
2023/10/07 01:39:49;;;;;;;466.63;210.07;;;;;;;;;;5020640;28;20657;-80
2023/10/07 01:42:37;;;;;;;448.20;201.13;;;;;;;;;;5006623;28;20656;-79
2023/10/07 01:45:19;;;;;;;483.20;220.00;;;;;;;;;;5010453;28;20200;-79
2023/10/07 01:47:47;;;;;;;486.40;219.23;;;;;;;;;;5015484;28;20265;-80
2023/10/07 01:50:14;;;;;;;480.90;216.07;;;;;;;;;;5021042;28;20717;-80
2023/10/07 01:52:40;;;;;;;488.67;228.67;;;;;;;;;;5010350;28;21112;-80
2023/10/07 01:55:09;;;;;;;444.83;200.33;;;;;;;;;;5018916;28;20274;-80
2023/10/07 01:57:35;;;;;;;463.23;203.87;;;;;;;;;;5006872;28;20184;-80
2023/10/07 02:00:06;;;;;;;452.20;201.80;;;;;;;;;;5011197;28;20205;-80
2023/10/07 02:02:32;;;;;;;474.63;210.43;;;;;;;;;;5009695;28;20204;-79
2023/10/07 02:04:59;;;;;;;498.40;224.77;;;;;;;;;;5003186;28;20208;-80
2023/10/07 02:07:27;;;;;;;464.97;208.87;;;;;;;;;;5013767;28;20873;-79
2023/10/07 02:09:56;;;;;;;514.67;237.07;;;;;;;;;;5025149;28;20192;-80
2023/10/07 02:12:24;;;;;;;454.63;202.57;;;;;;;;;;5027796;28;20223;-79
2023/10/07 02:14:52;;;;;;;457.93;208.47;;;;;;;;;;5025106;28;20216;-79
2023/10/07 02:17:20;;;;;;;450.57;201.87;;;;;;;;;;5012687;28;20585;-79
2023/10/07 02:19:47;;;;;;;535.37;246.20;;;;;;;;;;5013391;28;20261;-78
2023/10/07 02:22:27;;;;;;;468.67;210.10;;;;;;;;;;5009835;28;20238;-78
2023/10/07 02:25:02;;;;;;;467.63;211.07;;;;;;;;;;5004006;28;20344;-79
2023/10/07 02:27:37;;;;;;;473.67;215.40;;;;;;;;;;5004142;28;20577;-78
2023/10/07 02:30:04;;;;;;;466.50;213.57;;;;;;;;;;5030503;28;20227;-79
2023/10/07 02:32:32;;;;;;;456.53;205.20;;;;;;;;;;5032831;28;20223;-79
2023/10/07 02:35:00;;;;;;;494.43;225.23;;;;;;;;;;5021495;28;20216;-79
2023/10/07 02:37:30;;;;;;;447.27;200.47;;;;;;;;;;5025039;28;20223;-79
2023/10/07 02:40:01;;;;;;;483.00;220.37;;;;;;;;;;5011550;28;20215;-79
2023/10/07 02:42:31;;;;;;;491.43;223.37;;;;;;;;;;5012388;28;20181;-80
2023/10/07 02:45:42;;;;;;;476.50;217.10;;;;;;;;;;5032229;28;20682;-80
2023/10/07 02:48:00;;;;;;;492.90;226.17;;;;;;;;;;5021773;28;20901;-80
2023/10/07 02:50:26;;;;;;;445.40;197.70;;;;;;;;;;5027263;28;20217;-80
2023/10/07 02:52:54;;;;;;;489.47;218.73;;;;;;;;;;5036545;28;20310;-80
2023/10/07 02:57:47;;;;;;;469.47;208.73;;;;;;;;;;5038215;28;20796;-80
2023/10/07 03:00:29;;;;;;;498.07;223.30;;;;;;;;;;5007295;28;20220;-79
2023/10/07 03:03:10;;;;;;;504.20;226.43;;;;;;;;;;5033588;28;20249;-80
2023/10/07 03:05:44;;;;;;;476.87;211.87;;;;;;;;;;5015341;28;20220;-80
2023/10/07 03:08:19;;;;;;;458.87;205.60;;;;;;;;;;5036577;28;20533;-80
2023/10/07 03:10:54;;;;;;;459.63;207.93;;;;;;;;;;5018815;28;20249;-79
2023/10/07 03:13:20;;;;;;;448.47;202.07;;;;;;;;;;5028730;28;20357;-79
2023/10/07 03:15:59;;;;;;;475.73;213.27;;;;;;;;;;5003197;28;20855;-79
2023/10/07 03:18:30;;;;;;;465.70;206.07;;;;;;;;;;5015701;28;20223;-79
2023/10/07 03:21:11;;;;;;;469.30;216.93;;;;;;;;;;5034083;28;20222;-79
2023/10/07 03:23:58;;;;;;;478.73;216.10;;;;;;;;;;5014759;28;20850;-79
2023/10/07 03:26:24;;;;;;;471.63;209.60;;;;;;;;;;5027946;28;20218;-79
2023/10/07 03:28:54;;;;;;;483.13;224.37;;;;;;;;;;5006219;28;20208;-78
2023/10/07 03:31:28;;;;;;;448.13;200.03;;;;;;;;;;5032718;28;20257;-79
2023/10/07 03:33:54;;;;;;;461.10;211.20;;;;;;;;;;5016701;28;20183;-79
2023/10/07 03:38:55;;;;;;;496.50;220.63;;;;;;;;;;5029852;28;20265;-79
2023/10/07 03:41:21;;;;;;;467.90;205.93;;;;;;;;;;5023140;28;20251;-79
2023/10/07 03:43:47;;;;;;;450.43;203.17;;;;;;;;;;5011351;28;20216;-79
2023/10/07 03:46:16;;;;;;;462.10;211.37;;;;;;;;;;5009512;28;20296;-79
2023/10/07 03:48:49;;;;;;;469.50;207.07;;;;;;;;;;5036307;28;20180;-79
2023/10/07 03:51:15;;;;;;;446.03;199.40;;;;;;;;;;5010141;28;20315;-79
2023/10/07 03:53:44;;;;;;;476.23;214.13;;;;;;;;;;5032303;28;20946;-79
2023/10/07 03:56:20;;;;;;;455.67;203.37;;;;;;;;;;5011033;28;20220;-79
2023/10/07 03:58:46;;;;;;;503.27;227.50;;;;;;;;;;5014926;28;20591;-78
2023/10/07 04:01:18;;;;;;;464.47;206.90;;;;;;;;;;5014825;28;20259;-78
2023/10/07 04:03:49;;;;;;;488.90;222.43;;;;;;;;;;5011136;28;20211;-80
2023/10/07 04:06:16;;;;;;;468.53;210.40;;;;;;;;;;5011420;28;20215;-78
2023/10/07 04:08:44;;;;;;;451.83;206.20;;;;;;;;;;5026040;28;20220;-80
2023/10/07 04:11:19;;;;;;;463.13;212.20;;;;;;;;;;5004389;28;20227;-80
2023/10/07 04:13:45;;;;;;;464.73;208.83;;;;;;;;;;5006244;28;20207;-79
2023/10/07 04:16:24;;;;;;;462.23;204.63;;;;;;;;;;5027029;28;20231;-80
2023/10/07 04:18:50;;;;;;;502.03;230.03;;;;;;;;;;5005890;28;20219;-78
2023/10/07 04:21:16;;;;;;;435.87;194.60;;;;;;;;;;5009216;28;20630;-78
2023/10/07 04:23:44;;;;;;;453.47;203.43;;;;;;;;;;5015159;28;20231;-79
2023/10/07 04:26:11;;;;;;;461.73;203.57;;;;;;;;;;5010309;28;20215;-79
2023/10/07 04:28:41;;;;;;;438.93;194.57;;;;;;;;;;5015662;28;20218;-78
2023/10/07 04:31:10;;;;;;;476.40;217.13;;;;;;;;;;5004468;28;20212;-79
2023/10/07 04:33:41;;;;;;;474.47;212.20;;;;;;;;;;5013528;28;20250;-79
2023/10/07 04:36:11;;;;;;;466.27;205.83;;;;;;;;;;5005079;28;20231;-80
2023/10/07 04:38:53;;;;;;;479.20;215.13;;;;;;;;;;5024018;28;20231;-79
2023/10/07 04:43:50;;;;;;;467.67;207.33;;;;;;;;;;5019925;28;20209;-79
2023/10/07 04:46:23;;;;;;;442.07;198.03;;;;;;;;;;5013596;28;20647;-78
2023/10/07 04:48:56;;;;;;;470.57;210.33;;;;;;;;;;5018913;28;20189;-79
2023/10/07 04:53:59;;;;;;;469.97;207.43;;;;;;;;;;5018971;28;20246;-80
2023/10/07 04:56:31;;;;;;;452.60;195.83;;;;;;;;;;5022741;28;20211;-79
2023/10/07 04:59:00;;;;;;;478.27;214.33;;;;;;;;;;5020328;28;20235;-78
2023/10/07 05:01:32;;;;;;;438.60;193.37;;;;;;;;;;5018944;28;20593;-78
2023/10/07 05:04:01;;;;;;;483.47;217.77;;;;;;;;;;5000049;28;20231;-80
2023/10/07 05:06:28;;;;;;;457.80;205.47;;;;;;;;;;5023548;28;20184;-79
2023/10/07 05:08:54;;;;;;;483.80;215.10;;;;;;;;;;5003519;28;20243;-79
2023/10/07 05:11:20;;;;;;;464.83;207.63;;;;;;;;;;5005409;28;20303;-79
2023/10/07 05:13:46;;;;;;;463.97;205.07;;;;;;;;;;5002711;28;20306;-79
2023/10/07 05:16:13;;;;;;;454.20;201.13;;;;;;;;;;5007450;28;20297;-80
2023/10/07 05:18:39;;;;;;;455.17;199.17;;;;;;;;;;5024452;28;20239;-79
2023/10/07 05:21:06;;;;;;;449.43;201.63;;;;;;;;;;5024505;28;21863;-79
2023/10/07 05:23:33;;;;;;;444.77;196.37;;;;;;;;;;5001975;28;20212;-79
2023/10/07 05:26:03;;;;;;;476.20;214.33;;;;;;;;;;5018805;28;20219;-79
2023/10/07 05:28:30;;;;;;;499.57;225.53;;;;;;;;;;4998871;28;20209;-80
2023/10/07 05:30:57;;;;;;;474.37;214.90;;;;;;;;;;5007575;28;20219;-79
2023/10/07 05:33:26;;;;;;;457.30;202.67;;;;;;;;;;5035424;28;20168;-78
2023/10/07 05:36:08;;;;;;;466.47;210.33;;;;;;;;;;5021170;28;20218;-79
2023/10/07 05:38:35;;;;;;;444.10;201.63;;;;;;;;;;5008316;28;20285;-79
2023/10/07 05:41:01;;;;;;;470.17;212.53;;;;;;;;;;5031003;28;20221;-78
2023/10/07 05:43:28;;;;;;;451.93;207.53;;;;;;;;;;5028337;28;20216;-78
2023/10/07 05:45:54;;;;;;;475.83;215.87;;;;;;;;;;5033389;28;20191;-79
2023/10/07 05:48:21;;;;;;;436.07;192.17;;;;;;;;;;5015772;28;20246;-78
2023/10/07 05:50:47;;;;;;;453.43;201.73;;;;;;;;;;5021578;28;20261;-78
2023/10/07 05:53:15;;;;;;;456.50;203.23;;;;;;;;;;5022651;28;20212;-78
2023/10/07 05:55:41;;;;;;;461.33;204.27;;;;;;;;;;5025483;28;20278;-80
2023/10/07 05:58:07;;;;;;;497.07;228.30;;;;;;;;;;5012181;28;20212;-79
2023/10/07 06:00:36;;;;;;;454.80;206.30;;;;;;;;;;5033049;28;20226;-77
2023/10/07 06:03:11;;;;;;;482.73;218.70;;;;;;;;;;5004004;28;20220;-79
2023/10/07 06:05:37;;;;;;;475.37;207.83;;;;;;;;;;5022728;28;20898;-80
2023/10/07 06:08:05;;;;;;;500.03;227.17;;;;;;;;;;5012844;28;20204;-79
2023/10/07 06:10:33;;;;;;;456.73;203.53;;;;;;;;;;5028695;28;20219;-79
2023/10/07 06:12:59;;;;;;;485.87;220.20;;;;;;;;;;5026039;28;20191;-79
2023/10/07 06:15:25;;;;;;;453.63;203.37;;;;;;;;;;5013827;28;21057;-79
2023/10/07 06:17:51;;;;;;;500.00;223.07;;;;;;;;;;5013879;28;20207;-79
2023/10/07 06:20:26;;;;;;;438.17;191.60;;;;;;;;;;5026670;28;20270;-79
2023/10/07 06:22:59;;;;;;;487.33;217.63;;;;;;;;;;5013302;28;20225;-79
2023/10/07 06:25:31;;;;;;;478.70;211.30;;;;;;;;;;5028121;28;20632;-79
2023/10/07 06:27:59;;;;;;;522.83;245.97;;;;;;;;;;5014338;28;20180;-79
2023/10/07 06:30:26;;;;;;;470.40;207.97;;;;;;;;;;5027883;28;20284;-80
2023/10/07 06:32:55;;;;;;;455.13;205.13;;;;;;;;;;5018281;28;20383;-79
2023/10/07 06:35:25;;;;;;;453.33;202.23;;;;;;;;;;5000196;28;20797;-78
2023/10/07 06:37:52;;;;;;;454.53;206.70;;;;;;;;;;5024247;28;20589;-75
2023/10/07 06:40:28;;;;;;;442.63;192.87;;;;;;;;;;5007645;28;20292;-75
2023/10/07 06:42:56;;;;;;;475.23;213.20;;;;;;;;;;5013553;28;20433;-76
2023/10/07 06:45:22;;;;;;;482.80;212.77;;;;;;;;;;5030825;28;20578;-75
2023/10/07 06:47:48;;;;;;;479.80;213.87;;;;;;;;;;5024617;28;20280;-81
2023/10/07 06:50:19;;;;;;;443.97;198.07;;;;;;;;;;5014714;28;20235;-74
2023/10/07 06:52:45;;;;;;;462.07;210.97;;;;;;;;;;5020016;28;22190;-77
2023/10/07 06:55:15;;;;;;;469.23;205.37;;;;;;;;;;5022146;28;22329;-77
2023/10/07 06:57:42;;;;;;;487.03;221.13;;;;;;;;;;5012567;28;20263;-77
2023/10/07 07:00:13;;;;;;;495.13;221.57;;;;;;;;;;5028379;28;20215;-77
2023/10/07 07:02:42;;;;;;;487.20;218.00;;;;;;;;;;5014455;28;20499;-77
2023/10/07 07:05:13;;;;;;;486.90;213.90;;;;;;;;;;5028923;28;20273;-77
2023/10/07 07:07:41;;;;;;;449.27;193.93;;;;;;;;;;5020281;28;20392;-77
2023/10/07 07:10:07;;;;;;;480.47;214.47;;;;;;;;;;5009228;28;20236;-76
2023/10/07 07:12:33;;;;;;;485.20;221.20;;;;;;;;;;5014867;28;25164;-77
2023/10/07 07:15:04;;;;;;;459.13;204.73;;;;;;;;;;5016973;28;20265;-78
2023/10/07 07:17:35;;;;;;;478.73;217.00;;;;;;;;;;5010521;28;20326;-77
2023/10/07 07:22:37;;;;;;;473.87;211.60;;;;;;;;;;5031418;28;20214;-77
2023/10/07 07:25:17;;;;;;;519.70;237.83;;;;;;;;;;5035495;28;20669;-77
2023/10/07 07:27:48;;;;;;;443.53;196.00;;;;;;;;;;5030424;28;20183;-77
2023/10/07 07:30:30;;;;;;;476.97;219.27;;;;;;;;;;5018761;28;20233;-77
2023/10/07 07:32:58;;;;;;;643.00;314.10;;;;;;;;;;5017613;28;20223;-76
2023/10/07 07:35:37;;;;;;;427.77;190.67;;;;;;;;;;5008189;28;20315;-76
2023/10/07 07:38:03;;;;;;;498.10;224.43;;;;;;;;;;5004727;28;21665;-77
2023/10/07 07:40:37;;;;;;;469.07;205.10;;;;;;;;;;5017176;28;20223;-76
2023/10/07 07:43:07;;;;;;;470.63;215.27;;;;;;;;;;5023552;28;20187;-77
2023/10/07 07:45:35;;;;;;;446.10;200.97;;;;;;;;;;5004328;28;20177;-76
2023/10/07 07:48:04;;;;;;;466.93;202.93;;;;;;;;;;5002277;28;20244;-77
2023/10/07 07:50:35;;;;;;;444.10;192.30;;;;;;;;;;5017531;28;20345;-77
2023/10/07 07:53:06;;;;;;;508.30;237.97;;;;;;;;;;5032947;28;20208;-79
2023/10/07 07:55:33;;;;;;;458.20;199.87;;;;;;;;;;5025887;28;20677;-77
2023/10/07 07:57:59;;;;;;;482.87;216.40;;;;;;;;;;5008175;28;20707;-77
2023/10/07 08:00:26;;;;;;;466.83;202.97;;;;;;;;;;5007387;28;20204;-78
2023/10/07 08:02:55;;;;;;;461.93;203.67;;;;;;;;;;5029376;28;20221;-80
2023/10/07 08:05:21;;;;;;;447.27;195.20;;;;;;;;;;5009501;28;20216;-78
2023/10/07 08:07:51;;;;;;;480.80;212.53;;;;;;;;;;5021220;28;20215;-80
2023/10/07 08:10:22;;;;;;;479.57;217.43;;;;;;;;;;5008675;28;20247;-79
2023/10/07 08:12:50;;;;;;;460.03;210.47;;;;;;;;;;5034010;28;20180;-77
2023/10/07 08:15:23;;;;;;;467.70;210.70;;;;;;;;;;5032574;28;20333;-80
2023/10/07 08:17:51;;;;;;;471.43;215.53;;;;;;;;;;5015817;28;20211;-80
2023/10/07 08:20:26;;;;;;;464.63;208.23;;;;;;;;;;5016036;28;20310;-77
2023/10/07 08:22:52;;;;;;;471.50;212.43;;;;;;;;;;5008892;28;20231;-74
2023/10/07 08:25:36;;;;;;;460.57;206.17;;;;;;;;;;5028743;28;20243;-78
2023/10/07 08:28:18;;;;;;;489.30;218.37;;;;;;;;;;5009790;28;20180;-80
2023/10/07 08:30:46;;;;;;;481.50;216.60;;;;;;;;;;4996031;28;20209;-77
2023/10/07 08:33:13;;;;;;;477.97;216.67;;;;;;;;;;5004959;28;20685;-76
2023/10/07 08:35:43;;;;;;;473.10;216.47;;;;;;;;;;5021068;28;20729;-77
2023/10/07 08:38:20;;;;;;;524.63;240.43;;;;;;;;;;5022183;28;20224;-78
2023/10/07 08:40:50;;;;;;;531.03;246.53;;;;;;;;;;5019065;28;20269;-79
2023/10/07 08:43:25;;;;;;;448.77;195.17;;;;;;;;;;5018633;28;20473;-78
2023/10/07 08:45:52;;;;;;;439.73;192.20;;;;;;;;;;5004932;28;20183;-79
2023/10/07 08:48:18;;;;;;;448.33;199.30;;;;;;;;;;5003895;28;20187;-77
2023/10/07 08:50:59;;;;;;;474.90;213.50;;;;;;;;;;5015845;28;20227;-78
2023/10/07 08:53:26;;;;;;;442.00;193.03;;;;;;;;;;5010380;28;20593;-77
2023/10/07 08:55:53;;;;;;;517.30;237.20;;;;;;;;;;5015852;28;20227;-77
2023/10/07 08:58:23;;;;;;;499.93;231.53;;;;;;;;;;4999607;28;20227;-78
2023/10/07 09:00:50;;;;;;;451.00;202.00;;;;;;;;;;5000376;28;20329;-78
2023/10/07 09:03:19;;;;;;;450.77;203.27;;;;;;;;;;4997366;28;20270;-79
2023/10/07 09:05:47;;;;;;;460.80;206.20;;;;;;;;;;5018970;28;20216;-77
2023/10/07 09:08:13;;;;;;;484.00;224.60;;;;;;;;;;5013473;28;20639;-77
2023/10/07 09:10:40;;;;;;;449.23;199.30;;;;;;;;;;5017971;28;20223;-78
2023/10/07 09:13:12;;;;;;;446.57;201.63;;;;;;;;;;5003407;28;20234;-81
2023/10/07 09:15:42;;;;;;;456.67;213.77;;;;;;;;;;5017622;28;20191;-77
2023/10/07 09:18:10;;;;;;;510.67;233.90;;;;;;;;;;5016724;28;20226;-75
2023/10/07 09:20:45;;;;;;;459.07;205.07;;;;;;;;;;4998639;28;20331;-77
2023/10/07 09:23:20;;;;;;;497.20;232.97;;;;;;;;;;5017247;28;20250;-77
2023/10/07 09:25:50;;;;;;;454.67;203.07;;;;;;;;;;5011864;28;20227;-78
2023/10/07 09:28:21;;;;;;;469.40;211.73;;;;;;;;;;5000975;28;20219;-78
2023/10/07 09:30:48;;;;;;;465.77;215.50;;;;;;;;;;5000450;28;20208;-76
2023/10/07 09:33:17;;;;;;;462.93;211.07;;;;;;;;;;5022949;28;20220;-76
2023/10/07 09:35:44;;;;;;;452.40;207.40;;;;;;;;;;5033596;28;20788;-77
2023/10/07 09:38:33;;;;;;;460.70;206.33;;;;;;;;;;5012389;28;20261;-76
2023/10/07 09:41:23;;;;;;;457.83;212.50;;;;;;;;;;5003546;28;20212;-78
2023/10/07 09:43:56;;;;;;;442.73;196.60;;;;;;;;;;4998531;28;20969;-78
2023/10/07 09:46:25;;;;;;;449.73;196.10;;;;;;;;;;5001837;28;20216;-78
2023/10/07 09:48:51;;;;;;;445.87;193.80;;;;;;;;;;5004254;28;20646;-78
2023/10/07 09:51:34;;;;;;;484.50;222.63;;;;;;;;;;5017885;28;20273;-77
2023/10/07 09:54:22;;;;;;;467.30;208.33;;;;;;;;;;5012160;28;20216;-78
2023/10/07 09:57:06;;;;;;;446.50;199.87;;;;;;;;;;5024112;28;20209;-77
2023/10/07 09:59:48;;;;;;;464.53;205.83;;;;;;;;;;5001821;28;20216;-78
2023/10/07 10:02:43;;;;;;;469.63;212.70;;;;;;;;;;5002393;28;20306;-78
2023/10/07 10:05:29;;;;;;;500.97;231.07;;;;;;;;;;5024679;28;20873;-78
2023/10/07 10:08:13;;;;;;;442.93;191.80;;;;;;;;;;5016766;28;20222;-79
2023/10/07 10:10:45;;;;;;;500.63;223.73;;;;;;;;;;5006045;28;20999;-79
2023/10/07 10:13:52;;;;;;;435.13;195.70;;;;;;;;;;5029743;28;20294;-78
2023/10/07 10:16:19;;;;;;;489.27;218.10;;;;;;;;;;5023683;28;20328;-80
2023/10/07 10:18:51;;;;;;;442.57;194.53;;;;;;;;;;5035576;28;20518;-79
2023/10/07 10:21:22;;;;;;;490.97;221.90;;;;;;;;;;5011206;28;20230;-78
2023/10/07 10:23:51;;;;;;;510.10;227.27;;;;;;;;;;5028884;28;20365;-80
2023/10/07 10:26:22;;;;;;;478.00;211.77;;;;;;;;;;5032396;28;20307;-80
2023/10/07 10:29:00;;;;;;;482.37;219.60;;;;;;;;;;5025532;28;20455;-79
2023/10/07 10:31:32;;;;;;;444.40;193.77;;;;;;;;;;5019777;28;20230;-79
2023/10/07 10:33:59;;;;;;;440.40;200.13;;;;;;;;;;5008994;28;20183;-79
2023/10/07 10:36:25;;;;;;;462.40;205.07;;;;;;;;;;5007589;28;20638;-78
2023/10/07 10:38:50;;;;;;;449.60;192.13;;;;;;;;;;5013202;28;20235;-79
2023/10/07 10:41:32;;;;;;;489.27;217.90;;;;;;;;;;5031816;28;20239;-78
2023/10/07 10:44:10;;;;;;;483.03;221.30;;;;;;;;;;5010823;28;20207;-78
2023/10/07 10:46:46;;;;;;;444.23;190.93;;;;;;;;;;5011881;28;20227;-80
2023/10/07 10:49:13;;;;;;;524.17;242.07;;;;;;;;;;5010786;28;20211;-73
2023/10/07 10:51:46;;;;;;;462.53;205.00;;;;;;;;;;5010178;28;20172;-75
2023/10/07 10:54:15;;;;;;;482.17;215.20;;;;;;;;;;5004959;28;20220;-74
2023/10/07 10:56:58;;;;;;;460.67;208.10;;;;;;;;;;5022153;28;20216;-77
2023/10/07 10:59:48;;;;;;;461.37;207.23;;;;;;;;;;5022629;28;20219;-73
2023/10/07 11:02:20;;;;;;;481.17;215.37;;;;;;;;;;5020507;28;20636;-76
2023/10/07 11:04:47;;;;;;;469.83;206.63;;;;;;;;;;5004168;28;20224;-75
2023/10/07 11:07:14;;;;;;;461.40;204.70;;;;;;;;;;5006050;28;20332;-76
2023/10/07 11:09:40;;;;;;;456.73;201.93;;;;;;;;;;5024693;28;20201;-78
2023/10/07 11:12:12;;;;;;;477.27;209.53;;;;;;;;;;5021368;28;20223;-67
2023/10/07 11:14:39;;;;;;;447.87;203.60;;;;;;;;;;4995983;28;20225;-64
2023/10/07 11:17:05;;;;;;;442.57;199.50;;;;;;;;;;5024548;28;20238;-65
2023/10/07 11:19:32;;;;;;;499.93;229.37;;;;;;;;;;5032358;28;20254;-65
2023/10/07 11:21:59;;;;;;;454.87;202.83;;;;;;;;;;5029148;28;20200;-75
2023/10/07 11:24:26;;;;;;;460.00;200.23;;;;;;;;;;5030058;28;20184;-76
2023/10/07 11:26:52;;;;;;;464.50;205.33;;;;;;;;;;5022987;28;20714;-75
2023/10/07 11:29:18;;;;;;;471.40;210.17;;;;;;;;;;5038450;28;20302;-77
2023/10/07 11:31:46;;;;;;;452.43;200.87;;;;;;;;;;5023042;28;20308;-76
2023/10/07 11:34:13;;;;;;;505.83;225.30;;;;;;;;;;5027729;28;20216;-77
2023/10/07 11:36:48;;;;;;;472.63;215.50;;;;;;;;;;5033415;28;20625;-73
2023/10/07 11:39:14;;;;;;;492.47;219.87;;;;;;;;;;5032693;28;20229;-75
2023/10/07 11:41:41;;;;;;;473.13;211.13;;;;;;;;;;5023608;28;20205;-74
2023/10/07 11:44:09;;;;;;;487.47;218.77;;;;;;;;;;5025757;28;20779;-72
2023/10/07 11:46:36;;;;;;;490.83;216.27;;;;;;;;;;5029167;28;20227;-72
2023/10/07 11:49:02;;;;;;;507.93;229.17;;;;;;;;;;5011844;28;20198;-72
2023/10/07 11:51:28;;;;;;;454.27;199.70;;;;;;;;;;5029451;28;20200;-74
2023/10/07 11:53:55;;;;;;;465.60;208.73;;;;;;;;;;5019922;28;20284;-72
2023/10/07 11:56:21;;;;;;;474.27;211.17;;;;;;;;;;5023947;28;20338;-73
2023/10/07 11:58:49;;;;;;;464.40;204.00;;;;;;;;;;5012251;28;20314;-73
2023/10/07 12:01:20;;;;;;;502.07;227.17;;;;;;;;;;4999236;28;20315;-73
2023/10/07 12:03:45;;;;;;;501.90;223.63;;;;;;;;;;5013066;28;20715;-73
2023/10/07 12:06:11;;;;;;;457.77;202.00;;;;;;;;;;5031075;28;20211;-73
2023/10/07 12:08:38;;;;;;;461.17;208.83;;;;;;;;;;5030997;28;20223;-73
2023/10/07 12:11:05;;;;;;;473.57;215.50;;;;;;;;;;5011464;28;22162;-73
2023/10/07 12:13:31;;;;;;;450.57;202.37;;;;;;;;;;5011752;28;20304;-72
2023/10/07 12:15:57;;;;;;;506.50;225.73;;;;;;;;;;5005611;28;20214;-73
2023/10/07 12:18:23;;;;;;;482.57;211.30;;;;;;;;;;5024095;28;20218;-72
2023/10/07 12:20:51;;;;;;;493.90;221.33;;;;;;;;;;5025116;28;20211;-73
2023/10/07 12:23:17;;;;;;;479.43;218.33;;;;;;;;;;5027257;28;20219;-70
2023/10/07 12:25:43;;;;;;;463.03;203.93;;;;;;;;;;5022836;28;20235;-72
2023/10/07 12:28:09;;;;;;;471.20;217.20;;;;;;;;;;5020292;28;20310;-71
2023/10/07 12:30:35;;;;;;;496.47;223.03;;;;;;;;;;4999511;28;20874;-71
2023/10/07 12:33:02;;;;;;;441.60;195.53;;;;;;;;;;5017564;28;20276;-72
2023/10/07 12:35:34;;;;;;;463.97;203.33;;;;;;;;;;5010840;28;20344;-72
2023/10/07 12:38:03;;;;;;;487.60;214.57;;;;;;;;;;5008866;28;20207;-74
2023/10/07 12:40:29;;;;;;;476.70;215.57;;;;;;;;;;5025189;28;20862;-72
2023/10/07 12:42:56;;;;;;;527.83;238.33;;;;;;;;;;5013590;28;20199;-73
2023/10/07 12:45:22;;;;;;;481.30;212.17;;;;;;;;;;5022537;28;20672;-72
2023/10/07 12:47:51;;;;;;;473.13;209.30;;;;;;;;;;5028614;28;20214;-72
2023/10/07 12:50:20;;;;;;;454.27;199.97;;;;;;;;;;5009751;28;20229;-72
2023/10/07 12:52:50;;;;;;;484.37;215.60;;;;;;;;;;5012558;28;20385;-72
2023/10/07 12:55:17;;;;;;;506.10;219.53;;;;;;;;;;5003523;28;20232;-72
2023/10/07 12:57:43;;;;;;;475.13;207.13;;;;;;;;;;5027348;28;20171;-72
2023/10/07 13:00:19;;;;;;;502.60;222.27;;;;;;;;;;5010237;28;20242;-72
2023/10/07 13:02:45;;;;;;;490.03;223.87;;;;;;;;;;5029086;28;20344;-73
2023/10/07 13:05:18;;;;;;;449.90;195.73;;;;;;;;;;5004880;28;20891;-73
2023/10/07 13:07:44;;;;;;;485.23;210.87;;;;;;;;;;5023931;28;20247;-72
2023/10/07 13:10:11;;;;;;;454.43;199.80;;;;;;;;;;5020269;28;20210;-72
2023/10/07 13:12:37;;;;;;;521.70;231.40;;;;;;;;;;5023316;28;20271;-73
2023/10/07 13:15:14;;;;;;;485.80;210.63;;;;;;;;;;5025426;28;20207;-72
2023/10/07 13:17:48;;;;;;;464.43;200.87;;;;;;;;;;5012812;28;20219;-72
2023/10/07 13:20:20;;;;;;;506.43;219.63;;;;;;;;;;5005962;28;20223;-72
2023/10/07 13:22:46;;;;;;;465.47;211.67;;;;;;;;;;5025406;28;20341;-72
2023/10/07 13:25:13;;;;;;;452.60;201.73;;;;;;;;;;5004926;28;20228;-73
2023/10/07 13:27:39;;;;;;;479.67;218.57;;;;;;;;;;5006062;28;20571;-73
2023/10/07 13:30:08;;;;;;;512.97;222.90;;;;;;;;;;5023519;28;20219;-72
2023/10/07 13:32:34;;;;;;;475.53;205.00;;;;;;;;;;5027617;28;20208;-72
2023/10/07 13:35:00;;;;;;;461.97;199.40;;;;;;;;;;5007070;28;20217;-73
2023/10/07 13:37:26;;;;;;;525.10;228.33;;;;;;;;;;5022166;28;20223;-75
2023/10/07 13:39:54;;;;;;;456.03;196.23;;;;;;;;;;5020990;28;20845;-72
2023/10/07 13:42:23;;;;;;;458.73;202.93;;;;;;;;;;5019587;28;20713;-73
2023/10/07 13:44:49;;;;;;;501.47;220.93;;;;;;;;;;5024582;28;20207;-73
2023/10/07 13:47:17;;;;;;;462.37;204.90;;;;;;;;;;5025923;28;20258;-73
2023/10/07 13:49:46;;;;;;;455.07;192.47;;;;;;;;;;5007087;28;20215;-73
2023/10/07 13:52:18;;;;;;;478.83;206.63;;;;;;;;;;5012806;28;20223;-73
2023/10/07 13:54:59;;;;;;;497.77;212.10;;;;;;;;;;5025298;28;20236;-73
2023/10/07 13:57:27;;;;;;;462.73;198.23;;;;;;;;;;5032934;28;20212;-73
2023/10/07 13:59:53;;;;;;;471.37;207.37;;;;;;;;;;5010153;28;20227;-72
2023/10/07 14:02:19;;;;;;;483.57;210.27;;;;;;;;;;5022098;28;20224;-73
2023/10/07 14:04:47;;;;;;;472.87;206.83;;;;;;;;;;5020966;28;20303;-72
2023/10/07 14:07:13;;;;;;;503.70;222.83;;;;;;;;;;5000018;28;20246;-72
2023/10/07 14:09:39;;;;;;;491.97;212.70;;;;;;;;;;5011585;28;20433;-73
2023/10/07 14:12:07;;;;;;;455.10;190.43;;;;;;;;;;5022082;28;20251;-72
2023/10/07 14:14:34;;;;;;;468.33;199.80;;;;;;;;;;5022810;28;20214;-73
2023/10/07 14:16:59;;;;;;;431.40;185.27;;;;;;;;;;5003139;28;20215;-73
2023/10/07 14:19:26;;;;;;;481.00;212.63;;;;;;;;;;5026368;28;20222;-73
2023/10/07 14:21:52;;;;;;;467.27;198.27;;;;;;;;;;5020119;28;20529;-73
2023/10/07 14:24:20;;;;;;;458.83;201.00;;;;;;;;;;5025385;28;20180;-73
2023/10/07 14:26:48;;;;;;;476.43;207.53;;;;;;;;;;5031586;28;20696;-73
2023/10/07 14:29:14;;;;;;;512.17;227.87;;;;;;;;;;5013149;28;20220;-73
2023/10/07 14:31:43;;;;;;;471.00;206.70;;;;;;;;;;5025831;28;20242;-81
2023/10/07 14:34:11;;;;;;;500.33;225.37;;;;;;;;;;5010045;28;20589;-84